Time;durP1;ratioP1;P1;durP2;ratioP2;P2;SDS_P1;SDS_P2;PMS_P1;PMS_P2;Temp;Humidity;BMP_temperature;BMP_pressure;BME280_temperature;BME280_humidity;BME280_pressure;Samples;Min_cycle;Max_cycle;Signal;HPM_P1;HPM_P2
2022/07/31 00:00:30;;;;;;;8.05;4.90;;;19.00;73.20;;;;;;5058158;28;20032;-66
2022/07/31 00:02:57;;;;;;;8.65;5.07;;;19.00;73.70;;;;;;5057485;28;20480;-66
2022/07/31 00:05:23;;;;;;;8.50;4.97;;;19.00;73.90;;;;;;5058051;28;20021;-66
2022/07/31 00:07:50;;;;;;;9.43;5.03;;;19.00;74.50;;;;;;5057503;28;20039;-66
2022/07/31 00:10:15;;;;;;;7.53;5.00;;;19.10;73.00;;;;;;5057340;28;20527;-66
2022/07/31 00:12:41;;;;;;;8.60;5.10;;;19.10;73.20;;;;;;5057812;28;20025;-66
2022/07/31 00:15:09;;;;;;;8.38;4.93;;;19.10;73.70;;;;;;5057538;28;20021;-66
2022/07/31 00:17:36;;;;;;;8.98;5.30;;;19.10;75.30;;;;;;5057937;28;20033;-66
2022/07/31 00:20:03;;;;;;;8.38;4.95;;;19.20;74.30;;;;;;5057364;28;20029;-66
2022/07/31 00:22:29;;;;;;;7.75;4.75;;;19.20;73.00;;;;;;5057221;28;20029;-66
2022/07/31 00:24:55;;;;;;;7.70;4.45;;;19.20;73.80;;;;;;5057483;28;20017;-66
2022/07/31 00:27:22;;;;;;;9.60;5.63;;;19.20;72.80;;;;;;5057457;28;20029;-66
2022/07/31 00:29:48;;;;;;;7.82;5.20;;;19.20;73.20;;;;;;5057372;28;20029;-66
2022/07/31 00:32:14;;;;;;;8.00;5.07;;;19.30;73.50;;;;;;5057408;28;20029;-66
2022/07/31 00:34:41;;;;;;;6.60;4.45;;;19.30;74.60;;;;;;5057336;28;20021;-66
2022/07/31 00:37:07;;;;;;;8.32;5.22;;;19.30;76.60;;;;;;5057519;28;20040;-66
2022/07/31 00:39:33;;;;;;;7.70;5.07;;;19.40;75.00;;;;;;5057244;28;20025;-66
2022/07/31 00:41:59;;;;;;;7.40;4.75;;;19.40;75.60;;;;;;5057884;28;20031;-66
2022/07/31 00:44:24;;;;;;;8.30;4.90;;;19.40;73.60;;;;;;5057616;28;20401;-66
2022/07/31 00:46:50;;;;;;;8.13;4.85;;;19.50;76.20;;;;;;5057130;28;20032;-66
2022/07/31 00:49:16;;;;;;;8.75;5.20;;;19.50;73.80;;;;;;5057425;28;20021;-66
2022/07/31 00:51:42;;;;;;;9.70;5.30;;;19.60;75.00;;;;;;5057318;28;20029;-66
2022/07/31 00:54:09;;;;;;;6.45;4.63;;;19.60;76.30;;;;;;5057434;28;20106;-66
2022/07/31 00:56:35;;;;;;;7.40;5.00;;;19.60;75.30;;;;;;5061246;28;20028;-66
2022/07/31 00:59:01;;;;;;;9.27;5.45;;;19.70;75.50;;;;;;5060950;28;20365;-66
2022/07/31 01:01:27;;;;;;;8.15;5.47;;;19.70;75.10;;;;;;5061153;28;20043;-66
2022/07/31 01:03:52;;;;;;;8.30;5.55;;;19.80;75.50;;;;;;5061378;28;20029;-66
2022/07/31 01:06:18;;;;;;;9.20;5.32;;;19.80;73.80;;;;;;5060886;28;20163;-66
2022/07/31 01:08:44;;;;;;;9.93;5.55;;;19.80;76.50;;;;;;5060874;28;20080;-66
2022/07/31 01:11:20;;;;;;;7.78;5.15;;;19.80;75.50;;;;;;5061355;28;20053;-66
2022/07/31 01:13:56;;;;;;;9.43;5.47;;;19.80;75.30;;;;;;5061013;28;20146;-66
2022/07/31 01:16:26;;;;;;;9.10;5.90;;;19.80;74.50;;;;;;5061174;28;20028;-66
2022/07/31 01:18:55;;;;;;;9.13;5.70;;;19.80;74.70;;;;;;5060604;28;20044;-66
2022/07/31 01:22:02;;;;;;;7.90;5.35;;;19.80;74.70;;;;;;5060676;28;20085;-66
2022/07/31 01:24:37;;;;;;;9.05;5.43;;;19.80;74.10;;;;;;4964596;28;20093;-66
2022/07/31 01:27:26;;;;;;;7.93;5.28;;;19.80;74.50;;;;;;5060877;28;20385;-66
2022/07/31 01:29:55;;;;;;;8.50;5.15;;;19.80;75.50;;;;;;5060717;28;20036;-66
2022/07/31 01:32:30;;;;;;;10.07;5.63;;;19.80;74.30;;;;;;5060584;28;20025;-66
2022/07/31 01:35:21;;;;;;;9.52;5.60;;;19.80;74.80;;;;;;5060481;28;20071;-66
2022/07/31 01:38:00;;;;;;;8.75;5.50;;;19.80;75.10;;;;;;5060693;28;20383;-66
2022/07/31 01:40:41;;;;;;;9.27;5.38;;;19.80;75.10;;;;;;5060537;28;20025;-66
2022/07/31 01:43:11;;;;;;;7.80;5.15;;;19.80;75.40;;;;;;5060158;28;20052;-66
2022/07/31 01:45:41;;;;;;;8.88;5.03;;;19.90;74.90;;;;;;5061010;28;20047;-66
2022/07/31 01:48:12;;;;;;;9.45;5.45;;;19.90;74.80;;;;;;5060473;28;20045;-66
2022/07/31 01:50:41;;;;;;;9.05;5.70;;;19.90;74.10;;;;;;5059947;28;20472;-66
2022/07/31 01:53:07;;;;;;;8.65;5.28;;;19.90;75.20;;;;;;5060150;28;20488;-66
2022/07/31 01:55:35;;;;;;;7.88;5.45;;;19.90;75.60;;;;;;5060181;28;20032;-66
2022/07/31 01:58:02;;;;;;;9.50;5.75;;;19.90;75.70;;;;;;5060019;28;20029;-66
2022/07/31 02:00:28;;;;;;;7.82;5.45;;;19.90;75.60;;;;;;5060247;28;20078;-66
2022/07/31 02:02:57;;;;;;;7.03;4.78;;;19.90;75.50;;;;;;5059972;28;20025;-66
2022/07/31 02:05:24;;;;;;;8.60;5.38;;;19.90;74.70;;;;;;5059916;28;20044;-66
2022/07/31 02:07:52;;;;;;;7.65;5.07;;;19.90;75.90;;;;;;5059793;28;20396;-66
2022/07/31 02:10:19;;;;;;;7.47;5.10;;;19.90;75.10;;;;;;5059760;28;20434;-66
2022/07/31 02:12:45;;;;;;;7.72;5.43;;;20.00;74.10;;;;;;5059627;28;20472;-66
2022/07/31 02:15:15;;;;;;;7.97;5.10;;;20.00;75.50;;;;;;5059921;28;20028;-66
2022/07/31 02:17:43;;;;;;;8.15;5.40;;;20.00;74.80;;;;;;5059549;28;20427;-66
2022/07/31 02:20:11;;;;;;;7.88;5.25;;;20.00;75.20;;;;;;5059599;28;20025;-66
2022/07/31 02:22:37;;;;;;;8.43;5.70;;;20.00;74.30;;;;;;5059724;28;20104;-66
2022/07/31 02:25:05;;;;;;;8.55;5.32;;;20.10;74.70;;;;;;5059829;28;20036;-66
2022/07/31 02:27:32;;;;;;;7.75;5.20;;;20.10;75.00;;;;;;5059700;28;20021;-66
2022/07/31 02:30:01;;;;;;;8.77;5.10;;;20.10;75.60;;;;;;5059453;28;20559;-66
2022/07/31 02:32:28;;;;;;;9.13;5.60;;;20.10;75.20;;;;;;5059697;28;20112;-66
2022/07/31 02:34:58;;;;;;;8.75;5.53;;;20.10;74.90;;;;;;5059421;28;20052;-66
2022/07/31 02:37:25;;;;;;;7.93;5.32;;;20.10;75.00;;;;;;5059543;28;20025;-66
2022/07/31 02:39:53;;;;;;;8.13;5.10;;;20.10;74.20;;;;;;5059676;28;20032;-66
2022/07/31 02:42:19;;;;;;;8.18;5.28;;;20.10;73.50;;;;;;5059673;28;20045;-66
2022/07/31 02:44:46;;;;;;;8.43;6.03;;;20.10;73.80;;;;;;5059421;28;20025;-66
2022/07/31 02:47:12;;;;;;;8.13;5.60;;;20.10;74.50;;;;;;5059397;28;20025;-66
2022/07/31 02:49:39;;;;;;;8.45;5.45;;;20.00;73.70;;;;;;5059052;28;20381;-66
2022/07/31 02:52:05;;;;;;;8.82;5.25;;;20.00;75.00;;;;;;5059172;28;20108;-66
2022/07/31 02:54:35;;;;;;;7.60;5.00;;;20.10;74.60;;;;;;5059220;28;20048;-66
2022/07/31 02:57:02;;;;;;;8.25;5.18;;;20.10;75.00;;;;;;5058957;28;20029;-66
2022/07/31 02:59:28;;;;;;;7.57;5.47;;;20.10;74.90;;;;;;5058491;28;20039;-66
2022/07/31 03:01:53;;;;;;;9.07;5.45;;;20.10;74.50;;;;;;5059016;28;20124;-66
2022/07/31 03:04:20;;;;;;;8.73;5.93;;;20.10;75.00;;;;;;5059013;28;20449;-66
2022/07/31 03:06:49;;;;;;;8.85;5.90;;;20.10;74.90;;;;;;5058680;28;20114;-66
2022/07/31 03:09:15;;;;;;;8.43;6.03;;;20.10;74.30;;;;;;5058643;28;20025;-66
2022/07/31 03:11:42;;;;;;;8.77;5.90;;;20.10;73.90;;;;;;5058694;28;20040;-66
2022/07/31 03:14:10;;;;;;;9.77;6.00;;;20.10;74.30;;;;;;5058825;28;20029;-66
2022/07/31 03:16:36;;;;;;;8.85;5.93;;;20.10;74.70;;;;;;5058365;28;20033;-66
2022/07/31 03:19:04;;;;;;;8.20;5.72;;;20.00;74.70;;;;;;5058130;28;20025;-66
2022/07/31 03:21:31;;;;;;;8.35;5.72;;;20.00;74.70;;;;;;5058936;28;20021;-66
2022/07/31 03:23:59;;;;;;;8.75;5.60;;;20.00;75.20;;;;;;5058619;28;20025;-66
2022/07/31 03:26:25;;;;;;;10.02;5.88;;;20.10;73.60;;;;;;5058398;28;20514;-66
2022/07/31 03:28:52;;;;;;;8.77;6.13;;;20.00;74.90;;;;;;5058438;28;20040;-66
2022/07/31 03:31:18;;;;;;;10.25;6.47;;;20.00;74.70;;;;;;5058437;28;20028;-66
2022/07/31 03:33:44;;;;;;;9.23;5.90;;;20.10;74.10;;;;;;5058304;28;20017;-66
2022/07/31 03:36:11;;;;;;;8.05;5.75;;;20.00;74.80;;;;;;5058132;28;20029;-66
2022/07/31 03:38:37;;;;;;;8.65;6.35;;;20.00;73.90;;;;;;5058460;28;20043;-66
2022/07/31 03:41:03;;;;;;;8.27;5.80;;;20.00;73.90;;;;;;5058322;28;20029;-66
2022/07/31 03:43:31;;;;;;;8.63;6.22;;;20.00;75.30;;;;;;5058163;28;20021;-66
2022/07/31 03:45:59;;;;;;;9.13;5.80;;;20.00;75.20;;;;;;5058281;28;20029;-66
2022/07/31 03:48:27;;;;;;;9.45;6.07;;;20.00;75.00;;;;;;5058198;28;20025;-66
2022/07/31 03:50:52;;;;;;;9.77;5.82;;;20.10;75.30;;;;;;5057903;28;20024;-66
2022/07/31 03:53:19;;;;;;;8.55;6.03;;;20.10;75.20;;;;;;5058132;28;20017;-66
2022/07/31 03:55:45;;;;;;;9.35;6.80;;;20.10;75.00;;;;;;5058188;28;20441;-66
2022/07/31 03:58:11;;;;;;;8.88;6.30;;;20.10;74.00;;;;;;5057933;28;20465;-66
2022/07/31 04:00:37;;;;;;;9.35;6.32;;;20.10;74.20;;;;;;5057702;28;20036;-66
2022/07/31 04:03:08;;;;;;;8.68;6.32;;;20.10;74.80;;;;;;5057567;28;20021;-66
2022/07/31 04:05:34;;;;;;;8.82;6.60;;;20.10;74.80;;;;;;5057804;28;20032;-66
2022/07/31 04:08:00;;;;;;;10.00;6.80;;;20.00;74.40;;;;;;5057320;28;20496;-66
2022/07/31 04:10:26;;;;;;;9.32;6.82;;;20.00;74.90;;;;;;5057336;28;20056;-66
2022/07/31 04:12:51;;;;;;;9.77;6.95;;;20.00;74.80;;;;;;5057989;28;20025;-66
2022/07/31 04:15:17;;;;;;;8.82;6.35;;;20.00;74.70;;;;;;5057585;28;20036;-66
2022/07/31 04:17:43;;;;;;;10.25;6.80;;;19.90;75.20;;;;;;5057483;28;20068;-66
2022/07/31 04:20:10;;;;;;;8.80;6.78;;;20.00;74.70;;;;;;5057597;28;20061;-66
2022/07/31 04:22:37;;;;;;;9.52;7.07;;;19.90;74.50;;;;;;5057613;28;20031;-66
2022/07/31 04:25:03;;;;;;;10.15;6.88;;;19.90;74.30;;;;;;5057427;28;20040;-66
2022/07/31 04:27:29;;;;;;;9.15;6.78;;;19.90;74.70;;;;;;5057573;28;20020;-66
2022/07/31 04:29:56;;;;;;;9.18;6.20;;;19.90;74.80;;;;;;5056364;28;20033;-66
2022/07/31 04:32:23;;;;;;;10.77;6.57;;;19.90;74.80;;;;;;5057206;28;20507;-66
2022/07/31 04:34:49;;;;;;;10.00;7.30;;;19.90;74.90;;;;;;5057611;28;20434;-66
2022/07/31 04:37:15;;;;;;;9.68;6.93;;;19.90;74.70;;;;;;5057876;28;20025;-66
2022/07/31 04:39:42;;;;;;;9.73;6.80;;;19.90;74.00;;;;;;5057146;28;20025;-66
2022/07/31 04:42:08;;;;;;;8.52;6.30;;;20.00;74.80;;;;;;5057554;28;20092;-66
2022/07/31 04:44:34;;;;;;;9.10;6.95;;;19.90;75.10;;;;;;5056956;28;20430;-66
2022/07/31 04:47:02;;;;;;;9.63;6.78;;;20.00;74.50;;;;;;5039711;28;20017;-66
2022/07/31 04:49:29;;;;;;;9.73;6.80;;;19.90;74.40;;;;;;5057438;28;20028;-66
2022/07/31 04:51:56;;;;;;;10.20;7.10;;;19.90;74.90;;;;;;5057413;28;20081;-66
2022/07/31 04:54:22;;;;;;;10.10;6.53;;;19.90;75.30;;;;;;5056973;28;20029;-66
2022/07/31 04:56:47;;;;;;;10.52;6.78;;;19.90;74.90;;;;;;5057349;28;20032;-66
2022/07/31 04:59:16;;;;;;;9.82;6.40;;;19.90;74.70;;;;;;5057140;28;20033;-66
2022/07/31 05:01:43;;;;;;;9.43;6.65;;;19.90;75.00;;;;;;5057238;28;20025;-66
2022/07/31 05:04:09;;;;;;;10.95;6.90;;;19.90;74.70;;;;;;5057307;28;20127;-66
2022/07/31 05:06:36;;;;;;;9.52;7.22;;;19.90;74.10;;;;;;5057073;28;20060;-66
2022/07/31 05:09:04;;;;;;;10.43;7.28;;;19.90;74.50;;;;;;5057200;28;20028;-66
2022/07/31 05:11:30;;;;;;;10.25;7.28;;;19.90;74.80;;;;;;5057121;28;20036;-66
2022/07/31 05:13:58;;;;;;;9.10;7.22;;;19.90;74.30;;;;;;5057788;28;20078;-66
2022/07/31 05:16:24;;;;;;;9.73;7.00;;;19.90;74.80;;;;;;5056894;28;20025;-66
2022/07/31 05:18:51;;;;;;;9.15;6.30;;;19.90;74.00;;;;;;5057071;28;20045;-66
2022/07/31 05:21:17;;;;;;;9.57;7.45;;;19.90;75.00;;;;;;5056936;28;20024;-66
2022/07/31 05:23:45;;;;;;;9.45;6.88;;;19.90;73.80;;;;;;5056884;28;20028;-66
2022/07/31 05:26:11;;;;;;;9.65;6.88;;;19.90;74.60;;;;;;5057361;28;20396;-66
2022/07/31 05:28:38;;;;;;;10.00;6.82;;;19.90;74.90;;;;;;5057072;28;20032;-66
2022/07/31 05:31:05;;;;;;;8.90;6.60;;;19.80;74.00;;;;;;5056798;28;20021;-66
2022/07/31 05:33:31;;;;;;;9.02;6.72;;;19.80;74.30;;;;;;5056875;28;20029;-66
2022/07/31 05:35:57;;;;;;;8.93;6.65;;;19.90;74.50;;;;;;5056773;28;20032;-65
2022/07/31 05:38:23;;;;;;;8.30;6.60;;;19.80;74.10;;;;;;5056866;28;20029;-66
2022/07/31 05:40:49;;;;;;;8.48;6.88;;;19.90;74.90;;;;;;5058276;28;20020;-66
2022/07/31 05:43:15;;;;;;;9.35;6.70;;;19.80;74.20;;;;;;5060845;28;20067;-66
2022/07/31 05:45:40;;;;;;;9.80;6.65;;;19.80;74.70;;;;;;5060536;28;20404;-66
2022/07/31 05:48:06;;;;;;;9.63;6.93;;;19.90;74.80;;;;;;5060518;28;20032;-66
2022/07/31 05:50:35;;;;;;;9.38;6.88;;;19.90;75.20;;;;;;5060593;28;20029;-66
2022/07/31 05:53:01;;;;;;;9.60;6.50;;;19.80;75.10;;;;;;5060390;28;20025;-65
2022/07/31 05:55:27;;;;;;;8.70;6.50;;;19.90;75.00;;;;;;5060500;28;20027;-65
2022/07/31 05:57:52;;;;;;;9.30;6.90;;;19.90;75.10;;;;;;5060403;28;20392;-65
2022/07/31 06:00:19;;;;;;;8.85;6.45;;;19.90;75.00;;;;;;5060510;28;20472;-65
2022/07/31 06:02:46;;;;;;;9.18;6.40;;;19.90;75.20;;;;;;5060218;28;20060;-65
2022/07/31 06:05:12;;;;;;;9.75;7.07;;;19.90;75.30;;;;;;5060380;28;20021;-65
2022/07/31 06:07:37;;;;;;;9.73;7.50;;;19.90;75.30;;;;;;5059935;28;20041;-65
2022/07/31 06:10:04;;;;;;;9.05;6.30;;;20.00;75.40;;;;;;5060221;28;20029;-65
2022/07/31 06:12:30;;;;;;;9.88;6.53;;;20.00;74.80;;;;;;5060591;28;20120;-65
2022/07/31 06:14:55;;;;;;;8.27;5.78;;;20.00;75.20;;;;;;5060151;28;20060;-65
2022/07/31 06:17:21;;;;;;;9.32;6.65;;;20.10;74.70;;;;;;5060081;28;20122;-65
2022/07/31 06:19:47;;;;;;;8.43;6.13;;;20.10;75.30;;;;;;5059951;28;20029;-65
2022/07/31 06:22:13;;;;;;;9.05;6.03;;;20.20;74.60;;;;;;5060161;28;20472;-65
2022/07/31 06:24:39;;;;;;;9.32;5.97;;;20.30;75.10;;;;;;5060109;28;20534;-65
2022/07/31 06:27:05;;;;;;;8.68;5.93;;;20.30;74.50;;;;;;5059877;28;20050;-65
2022/07/31 06:29:31;;;;;;;8.07;5.47;;;20.30;74.40;;;;;;5060052;28;20036;-65
2022/07/31 06:31:57;;;;;;;9.30;5.90;;;20.30;74.60;;;;;;5059684;28;20021;-65
2022/07/31 06:34:23;;;;;;;7.90;5.80;;;20.30;74.10;;;;;;5059316;28;20060;-66
2022/07/31 06:36:49;;;;;;;7.80;5.53;;;20.40;74.30;;;;;;5059013;28;20033;-65
2022/07/31 06:39:16;;;;;;;8.63;5.68;;;20.40;74.10;;;;;;5059024;28;20033;-65
2022/07/31 06:41:48;;;;;;;7.85;5.32;;;20.40;73.80;;;;;;5059218;28;20017;-66
2022/07/31 06:44:18;;;;;;;7.45;5.57;;;20.50;74.40;;;;;;5059162;28;20135;-65
2022/07/31 06:46:45;;;;;;;11.02;5.47;;;20.50;73.80;;;;;;5057802;28;20021;-65
2022/07/31 06:49:12;;;;;;;8.02;5.65;;;20.40;73.30;;;;;;5056872;28;20067;-65
2022/07/31 06:51:38;;;;;;;10.95;5.55;;;20.40;73.20;;;;;;5057294;28;20088;-66
2022/07/31 06:54:06;;;;;;;7.38;5.78;;;20.40;73.30;;;;;;5056833;28;20055;-66
2022/07/31 06:56:33;;;;;;;8.00;5.38;;;20.40;73.30;;;;;;5057669;28;20037;-66
2022/07/31 06:58:59;;;;;;;9.02;5.80;;;20.30;73.20;;;;;;5057587;28;20033;-65
2022/07/31 07:01:25;;;;;;;9.18;5.43;;;20.30;72.60;;;;;;5058551;28;20066;-65
2022/07/31 07:03:51;;;;;;;8.32;5.43;;;20.30;73.00;;;;;;5059088;28;20646;-65
2022/07/31 07:06:17;;;;;;;9.98;5.60;;;20.30;73.00;;;;;;5058728;28;20547;-65
2022/07/31 07:08:43;;;;;;;8.85;5.55;;;20.30;72.90;;;;;;5058716;28;20020;-65
2022/07/31 07:11:09;;;;;;;9.07;6.00;;;20.30;72.70;;;;;;5058782;28;20128;-66
2022/07/31 07:13:34;;;;;;;8.18;5.57;;;20.30;72.80;;;;;;5058562;28;20079;-66
2022/07/31 07:16:00;;;;;;;9.88;6.57;;;20.30;72.80;;;;;;5058488;28;20025;-65
2022/07/31 07:18:26;;;;;;;10.15;6.13;;;20.30;73.20;;;;;;5058644;28;20032;-65
2022/07/31 07:20:52;;;;;;;9.80;5.88;;;20.40;73.20;;;;;;5058684;28;20054;-65
2022/07/31 07:23:20;;;;;;;9.43;5.85;;;20.40;72.40;;;;;;5040917;28;20025;-65
2022/07/31 07:25:46;;;;;;;11.38;6.45;;;20.40;72.50;;;;;;5058489;28;20025;-65
2022/07/31 07:28:12;;;;;;;8.98;5.80;;;20.40;72.40;;;;;;5058368;28;20165;-66
2022/07/31 07:30:39;;;;;;;8.65;5.88;;;20.40;72.90;;;;;;5058051;28;20049;-65
2022/07/31 07:33:04;;;;;;;10.38;6.18;;;20.50;72.80;;;;;;5058459;28;20025;-66
2022/07/31 07:35:31;;;;;;;9.52;5.70;;;20.60;72.80;;;;;;5058573;28;20550;-66
2022/07/31 07:37:57;;;;;;;8.18;5.60;;;20.60;72.60;;;;;;5057710;28;20475;-65
2022/07/31 07:40:24;;;;;;;9.60;5.65;;;20.70;72.80;;;;;;5058208;28;20033;-64
2022/07/31 07:42:50;;;;;;;9.15;5.57;;;20.80;72.60;;;;;;5057991;28;20051;-64
2022/07/31 07:45:16;;;;;;;10.20;5.43;;;20.90;72.60;;;;;;5057866;28;20024;-64
2022/07/31 07:47:42;;;;;;;8.65;5.15;;;20.90;72.30;;;;;;5058005;28;20037;-64
2022/07/31 07:50:09;;;;;;;9.98;5.80;;;21.00;72.10;;;;;;5057934;28;20029;-64
2022/07/31 07:52:36;;;;;;;7.82;5.25;;;21.00;72.10;;;;;;5058407;28;20448;-64
2022/07/31 07:55:03;;;;;;;7.80;4.95;;;21.00;71.60;;;;;;5057544;28;20111;-65
2022/07/31 07:57:28;;;;;;;8.57;5.45;;;21.00;72.10;;;;;;5057798;28;20116;-65
2022/07/31 07:59:54;;;;;;;9.50;4.90;;;21.10;72.20;;;;;;5057562;28;20056;-65
2022/07/31 08:02:20;;;;;;;8.00;5.05;;;21.10;71.80;;;;;;5057519;28;20032;-64
2022/07/31 08:04:47;;;;;;;9.07;5.30;;;21.10;72.20;;;;;;5057519;28;20071;-64
2022/07/31 08:07:13;;;;;;;8.43;4.50;;;21.20;71.80;;;;;;5057347;28;20048;-64
2022/07/31 08:09:38;;;;;;;8.25;4.50;;;21.20;72.20;;;;;;5057619;28;20692;-64
2022/07/31 08:12:04;;;;;;;7.90;4.55;;;21.30;72.10;;;;;;5057416;28;20032;-64
2022/07/31 08:14:30;;;;;;;6.90;4.40;;;21.30;72.00;;;;;;5057361;28;20025;-64
2022/07/31 08:16:56;;;;;;;9.90;4.93;;;21.30;71.60;;;;;;5056979;28;20032;-64
2022/07/31 08:19:22;;;;;;;9.15;5.38;;;21.30;72.20;;;;;;5057390;28;20039;-64
2022/07/31 08:21:48;;;;;;;8.00;5.47;;;21.20;71.90;;;;;;5057108;28;20078;-65
2022/07/31 08:24:17;;;;;;;10.60;6.03;;;21.30;72.00;;;;;;5057459;28;20055;-65
2022/07/31 08:27:29;;;;;;;9.98;5.85;;;21.30;71.80;;;;;;5057446;28;20017;-65
2022/07/31 08:29:29;;;;;;;9.55;5.05;;;21.20;71.50;;;;;;5043074;28;20041;-65
2022/07/31 08:31:54;;;;;;;8.80;5.38;;;21.10;71.70;;;;;;5057624;28;20029;-65
2022/07/31 08:34:21;;;;;;;10.25;5.30;;;21.10;72.20;;;;;;5057386;28;20370;-64
2022/07/31 08:36:47;;;;;;;9.07;5.18;;;21.10;71.90;;;;;;5057211;28;20092;-64
2022/07/31 08:39:12;;;;;;;10.07;4.60;;;21.10;71.80;;;;;;5057081;28;20118;-64
2022/07/31 08:41:39;;;;;;;7.40;5.18;;;21.00;72.50;;;;;;5057293;28;20080;-64
2022/07/31 08:44:09;;;;;;;8.30;5.05;;;20.90;73.00;;;;;;5057181;28;20028;-64
2022/07/31 08:46:37;;;;;;;10.35;5.55;;;21.00;73.00;;;;;;5057176;28;20151;-64
2022/07/31 08:49:03;;;;;;;8.32;5.47;;;21.00;72.80;;;;;;5057206;28;20029;-65
2022/07/31 08:51:40;;;;;;;8.68;5.65;;;21.00;72.00;;;;;;5057390;28;20024;-65
2022/07/31 08:54:08;;;;;;;8.77;5.35;;;20.90;71.80;;;;;;5057180;28;20025;-65
2022/07/31 08:56:34;;;;;;;9.98;5.75;;;20.90;72.10;;;;;;5057175;28;20025;-64
2022/07/31 08:59:00;;;;;;;8.95;5.70;;;20.80;72.10;;;;;;5057249;28;20039;-64
2022/07/31 09:01:27;;;;;;;8.48;5.80;;;20.80;72.10;;;;;;5055776;28;20128;-66
2022/07/31 09:03:53;;;;;;;8.93;5.97;;;20.70;72.80;;;;;;5055623;28;20031;-66
2022/07/31 09:06:19;;;;;;;10.80;5.78;;;20.60;72.90;;;;;;5056652;28;20088;-65
2022/07/31 09:08:45;;;;;;;8.95;5.95;;;20.60;73.40;;;;;;5055820;28;20032;-64
2022/07/31 09:11:13;;;;;;;10.13;5.95;;;20.60;73.50;;;;;;5055879;28;20025;-64
2022/07/31 09:13:50;;;;;;;8.60;5.78;;;20.60;73.50;;;;;;5057240;28;20113;-63
2022/07/31 09:16:16;;;;;;;10.02;6.00;;;20.60;73.50;;;;;;5058893;28;20021;-64
2022/07/31 09:18:42;;;;;;;10.18;6.18;;;20.70;73.50;;;;;;5061101;28;20025;-64
2022/07/31 09:21:08;;;;;;;10.52;5.93;;;20.80;72.80;;;;;;5060739;28;20021;-64
2022/07/31 09:23:45;;;;;;;11.43;6.00;;;20.80;72.70;;;;;;5060655;28;20473;-64
2022/07/31 09:26:11;;;;;;;8.85;5.93;;;20.80;73.00;;;;;;5060375;28;20029;-64
2022/07/31 09:28:45;;;;;;;9.55;6.28;;;20.80;72.30;;;;;;5060708;28;20082;-64
2022/07/31 09:31:12;;;;;;;9.05;6.00;;;20.70;72.30;;;;;;5060608;28;20431;-64
2022/07/31 09:33:42;;;;;;;11.60;6.18;;;20.70;72.90;;;;;;5060584;28;20021;-64
2022/07/31 09:36:08;;;;;;;9.68;6.57;;;20.70;72.70;;;;;;5060341;28;20021;-64
2022/07/31 09:38:36;;;;;;;8.73;5.68;;;20.60;72.80;;;;;;5060422;28;20579;-64
2022/07/31 09:41:15;;;;;;;10.27;6.03;;;20.60;72.70;;;;;;5060443;28;20521;-64
2022/07/31 09:43:42;;;;;;;9.20;5.45;;;20.60;73.50;;;;;;5060428;28;20367;-64
2022/07/31 09:46:09;;;;;;;11.30;5.93;;;20.60;73.70;;;;;;5060601;28;20021;-63
2022/07/31 09:48:36;;;;;;;10.88;5.72;;;20.70;73.30;;;;;;5060379;28;20044;-63
2022/07/31 09:51:07;;;;;;;8.88;6.18;;;20.80;73.40;;;;;;5060582;28;20044;-63
2022/07/31 09:53:44;;;;;;;9.70;5.63;;;20.90;73.20;;;;;;5060349;28;20032;-63
2022/07/31 09:56:14;;;;;;;7.95;5.55;;;20.90;73.20;;;;;;5060220;28;20025;-63
2022/07/31 09:58:41;;;;;;;9.70;5.63;;;21.00;73.20;;;;;;5060033;28;20032;-63
2022/07/31 10:01:11;;;;;;;9.02;5.28;;;21.00;73.00;;;;;;5060116;28;20021;-63
2022/07/31 10:03:38;;;;;;;7.03;4.40;;;21.10;73.00;;;;;;5060108;28;20017;-63
2022/07/31 10:06:12;;;;;;;9.63;5.40;;;21.20;73.10;;;;;;5042033;28;20040;-63
2022/07/31 10:08:41;;;;;;;9.10;5.82;;;21.30;73.10;;;;;;5060019;28;20036;-63
2022/07/31 10:11:08;;;;;;;8.10;5.30;;;21.40;72.20;;;;;;5060122;28;20108;-64
2022/07/31 10:13:37;;;;;;;8.90;5.53;;;21.40;72.20;;;;;;5059931;28;20021;-64
2022/07/31 10:16:04;;;;;;;8.93;6.07;;;21.40;71.90;;;;;;5059951;28;20025;-64
2022/07/31 10:18:38;;;;;;;14.68;12.20;;;21.30;71.70;;;;;;5059940;28;20373;-64
2022/07/31 10:21:05;;;;;;;15.57;11.55;;;21.20;71.90;;;;;;5059997;28;20140;-64
2022/07/31 10:23:33;;;;;;;9.00;6.25;;;21.10;72.10;;;;;;5059806;28;20036;-64
2022/07/31 10:26:01;;;;;;;13.95;11.20;;;21.10;72.30;;;;;;5059870;28;20021;-63
2022/07/31 10:28:28;;;;;;;13.75;11.52;;;21.00;72.80;;;;;;5059634;28;20036;-63
2022/07/31 10:30:55;;;;;;;11.23;7.90;;;21.00;72.90;;;;;;5059738;28;20551;-63
2022/07/31 10:33:21;;;;;;;7.20;4.60;;;21.00;72.80;;;;;;5059868;28;20025;-63
2022/07/31 10:36:13;;;;;;;7.60;5.10;;;21.00;72.90;;;;;;5059613;28;20024;-63
2022/07/31 10:38:50;;;;;;;8.80;4.88;;;21.00;73.20;;;;;;5059541;28;20100;-63
2022/07/31 10:41:46;;;;;;;9.88;7.50;;;21.10;73.10;;;;;;5059773;28;20027;-63
2022/07/31 10:44:21;;;;;;;11.77;8.38;;;21.10;73.00;;;;;;5059519;28;20385;-63
2022/07/31 10:46:47;;;;;;;20.27;18.23;;;21.10;73.00;;;;;;5059082;28;20036;-63
2022/07/31 10:49:13;;;;;;;20.05;16.55;;;21.10;73.10;;;;;;5058846;28;20100;-63
2022/07/31 10:51:52;;;;;;;37.92;25.88;;;21.10;73.30;;;;;;5058393;28;20052;-64
2022/07/31 10:54:17;;;;;;;43.47;30.45;;;21.10;73.20;;;;;;5040817;28;20024;-64
2022/07/31 10:56:45;;;;;;;11.63;7.47;;;21.10;73.20;;;;;;5058928;28;20566;-64
2022/07/31 10:59:11;;;;;;;7.95;5.00;;;21.10;73.10;;;;;;5058491;28;20454;-64
2022/07/31 11:01:50;;;;;;;10.40;5.00;;;21.20;72.50;;;;;;5059070;28;20044;-63
2022/07/31 11:04:33;;;;;;;7.03;4.55;;;21.10;72.70;;;;;;5058879;28;20028;-63
2022/07/31 11:06:59;;;;;;;6.97;4.78;;;21.20;73.00;;;;;;5058845;28;20069;-63
2022/07/31 11:09:27;;;;;;;9.80;4.80;;;21.20;72.80;;;;;;5058362;28;20112;-63
2022/07/31 11:11:54;;;;;;;7.65;4.68;;;21.30;73.20;;;;;;5058406;28;20067;-63
2022/07/31 11:14:34;;;;;;;6.07;4.20;;;21.40;73.20;;;;;;5058219;28;20036;-63
2022/07/31 11:17:00;;;;;;;8.00;5.30;;;21.50;72.40;;;;;;5058433;28;20557;-64
2022/07/31 11:19:36;;;;;;;6.57;4.35;;;21.60;72.60;;;;;;5058511;28;20036;-64
2022/07/31 11:22:12;;;;;;;7.45;4.60;;;21.70;72.40;;;;;;5058531;28;20036;-64
2022/07/31 11:24:38;;;;;;;8.27;5.00;;;21.70;72.40;;;;;;5058137;28;20032;-64
2022/07/31 11:27:04;;;;;;;7.40;4.72;;;21.70;72.30;;;;;;5058348;28;20017;-64
2022/07/31 11:29:36;;;;;;;7.18;4.60;;;21.70;72.10;;;;;;5058552;28;20029;-64
2022/07/31 11:32:04;;;;;;;7.38;5.10;;;21.50;72.20;;;;;;5058751;28;20024;-64
2022/07/31 11:34:42;;;;;;;10.18;6.28;;;21.50;72.10;;;;;;5058241;28;20028;-64
2022/07/31 11:37:12;;;;;;;8.27;5.18;;;21.50;72.30;;;;;;5058317;28;20480;-64
2022/07/31 11:39:40;;;;;;;8.02;4.90;;;21.40;72.90;;;;;;5057411;28;20502;-64
2022/07/31 11:42:06;;;;;;;6.88;4.80;;;21.40;73.60;;;;;;5058263;28;20024;-64
2022/07/31 11:44:32;;;;;;;7.25;4.35;;;21.30;73.80;;;;;;5057861;28;20021;-64
2022/07/31 11:46:57;;;;;;;8.45;4.38;;;21.30;74.20;;;;;;5058189;28;20024;-63
2022/07/31 11:49:23;;;;;;;6.20;4.32;;;21.40;74.10;;;;;;5058256;28;20036;-64
2022/07/31 11:51:49;;;;;;;6.05;3.97;;;21.60;74.10;;;;;;5057943;28;20044;-64
2022/07/31 11:54:23;;;;;;;5.88;3.90;;;21.70;73.60;;;;;;5058265;28;20033;-64
2022/07/31 11:56:51;;;;;;;;;;;21.90;72.90;;;;;;5058313;28;20032;-64
2022/07/31 11:59:18;;;;;;;7.88;5.63;;;22.00;72.70;;;;;;5057502;28;20374;-64
2022/07/31 12:01:44;;;;;;;4.22;2.72;;;22.10;72.60;;;;;;5057703;28;20131;-64
2022/07/31 12:04:10;;;;;;;4.05;2.58;;;22.30;72.30;;;;;;5057424;28;20488;-65
2022/07/31 12:06:37;;;;;;;4.15;2.70;;;22.30;72.10;;;;;;5057562;28;20041;-64
2022/07/31 12:09:03;;;;;;;2.35;1.75;;;22.40;71.70;;;;;;5057569;28;20028;-64
2022/07/31 12:11:29;;;;;;;5.18;2.33;;;22.40;71.90;;;;;;5057581;28;20032;-63
2022/07/31 12:13:55;;;;;;;3.30;2.35;;;22.40;71.50;;;;;;5057528;28;20021;-63
2022/07/31 12:16:21;;;;;;;3.63;2.00;;;22.50;71.40;;;;;;5057648;28;20113;-64
2022/07/31 12:18:48;;;;;;;5.03;2.47;;;22.60;71.10;;;;;;5057760;28;20499;-63
2022/07/31 12:21:14;;;;;;;4.68;2.85;;;22.80;71.60;;;;;;5057449;28;20025;-63
2022/07/31 12:23:42;;;;;;;4.03;2.55;;;23.20;70.00;;;;;;5057535;28;20139;-63
2022/07/31 12:26:32;;;;;;;4.97;2.90;;;23.60;70.30;;;;;;5057521;28;20380;-65
2022/07/31 12:29:04;;;;;;;3.75;2.55;;;24.20;67.70;;;;;;5056573;28;20090;-65
2022/07/31 12:31:42;;;;;;;6.45;3.10;;;24.80;66.00;;;;;;5057409;28;20029;-65
2022/07/31 12:34:07;;;;;;;5.38;3.10;;;24.80;66.10;;;;;;5057339;28;20434;-65
2022/07/31 12:36:33;;;;;;;5.05;3.17;;;24.70;66.10;;;;;;5057486;28;20040;-65
2022/07/31 12:39:00;;;;;;;4.05;2.60;;;24.80;65.00;;;;;;5056970;28;20035;-65
2022/07/31 12:41:27;;;;;;;6.60;3.03;;;24.80;64.90;;;;;;5056990;28;20025;-65
2022/07/31 12:43:53;;;;;;;6.22;3.33;;;25.00;64.50;;;;;;5057118;28;20017;-65
2022/07/31 12:46:21;;;;;;;4.55;2.90;;;25.10;63.70;;;;;;5057242;28;20029;-66
2022/07/31 12:48:47;;;;;;;4.78;3.42;;;25.50;64.50;;;;;;5057274;28;20100;-65